sensor_id;sensor_type;location;lat;lon;timestamp;temperature;humidity
77985;DHT22;67177;47.240;-1.546;2023-11-21T00:01:17;12.10;83.20
77985;DHT22;67177;47.240;-1.546;2023-11-21T00:03:43;12.10;83.20
77985;DHT22;67177;47.240;-1.546;2023-11-21T00:06:09;12.00;83.30
77985;DHT22;67177;47.240;-1.546;2023-11-21T00:08:36;12.00;83.30
77985;DHT22;67177;47.240;-1.546;2023-11-21T00:11:02;12.00;83.40
77985;DHT22;67177;47.240;-1.546;2023-11-21T00:13:28;12.00;83.40
77985;DHT22;67177;47.240;-1.546;2023-11-21T00:15:53;12.00;83.50
77985;DHT22;67177;47.240;-1.546;2023-11-21T00:18:21;12.00;83.50
77985;DHT22;67177;47.240;-1.546;2023-11-21T00:20:46;12.00;83.50
77985;DHT22;67177;47.240;-1.546;2023-11-21T00:23:12;12.00;83.60
77985;DHT22;67177;47.240;-1.546;2023-11-21T00:25:37;12.00;83.60
77985;DHT22;67177;47.240;-1.546;2023-11-21T00:28:03;11.90;83.60
77985;DHT22;67177;47.240;-1.546;2023-11-21T00:30:29;11.90;83.70
77985;DHT22;67177;47.240;-1.546;2023-11-21T00:32:56;11.90;83.70
77985;DHT22;67177;47.240;-1.546;2023-11-21T00:35:21;11.90;83.80
77985;DHT22;67177;47.240;-1.546;2023-11-21T00:37:47;11.90;83.80
77985;DHT22;67177;47.240;-1.546;2023-11-21T00:40:15;11.90;83.90
77985;DHT22;67177;47.240;-1.546;2023-11-21T00:42:41;11.90;83.90
77985;DHT22;67177;47.240;-1.546;2023-11-21T00:45:07;12.00;83.90
77985;DHT22;67177;47.240;-1.546;2023-11-21T00:47:33;11.90;83.80
77985;DHT22;67177;47.240;-1.546;2023-11-21T00:49:58;11.90;83.80
77985;DHT22;67177;47.240;-1.546;2023-11-21T00:52:24;12.00;83.90
77985;DHT22;67177;47.240;-1.546;2023-11-21T00:54:50;12.00;83.90
77985;DHT22;67177;47.240;-1.546;2023-11-21T00:57:16;12.00;83.80
77985;DHT22;67177;47.240;-1.546;2023-11-21T00:59:41;12.00;83.70
77985;DHT22;67177;47.240;-1.546;2023-11-21T01:02:07;12.00;83.60
77985;DHT22;67177;47.240;-1.546;2023-11-21T01:04:35;12.00;83.60
77985;DHT22;67177;47.240;-1.546;2023-11-21T01:07:01;12.00;83.50
77985;DHT22;67177;47.240;-1.546;2023-11-21T01:09:27;12.10;83.50
77985;DHT22;67177;47.240;-1.546;2023-11-21T01:11:53;12.10;83.50
77985;DHT22;67177;47.240;-1.546;2023-11-21T01:14:19;12.10;83.50
77985;DHT22;67177;47.240;-1.546;2023-11-21T01:16:45;12.10;83.40
77985;DHT22;67177;47.240;-1.546;2023-11-21T01:19:11;12.20;83.30
77985;DHT22;67177;47.240;-1.546;2023-11-21T01:21:36;12.20;83.00
77985;DHT22;67177;47.240;-1.546;2023-11-21T01:24:02;12.10;83.10
77985;DHT22;67177;47.240;-1.546;2023-11-21T01:26:28;12.20;83.10
77985;DHT22;67177;47.240;-1.546;2023-11-21T01:28:54;12.20;83.10
77985;DHT22;67177;47.240;-1.546;2023-11-21T01:31:20;12.20;83.00
77985;DHT22;67177;47.240;-1.546;2023-11-21T01:33:46;12.20;83.00
77985;DHT22;67177;47.240;-1.546;2023-11-21T01:36:11;12.20;82.60
77985;DHT22;67177;47.240;-1.546;2023-11-21T01:38:37;12.20;82.50
77985;DHT22;67177;47.240;-1.546;2023-11-21T01:41:03;12.20;82.50
77985;DHT22;67177;47.240;-1.546;2023-11-21T01:43:30;12.20;82.30
77985;DHT22;67177;47.240;-1.546;2023-11-21T01:45:58;12.20;82.40
77985;DHT22;67177;47.240;-1.546;2023-11-21T01:48:24;12.10;82.40
77985;DHT22;67177;47.240;-1.546;2023-11-21T01:50:50;12.10;82.20
77985;DHT22;67177;47.240;-1.546;2023-11-21T01:53:16;12.10;82.10
77985;DHT22;67177;47.240;-1.546;2023-11-21T01:55:45;12.10;82.00
77985;DHT22;67177;47.240;-1.546;2023-11-21T01:58:12;12.10;82.00
77985;DHT22;67177;47.240;-1.546;2023-11-21T02:00:38;12.10;82.10
77985;DHT22;67177;47.240;-1.546;2023-11-21T02:03:04;12.10;82.10
77985;DHT22;67177;47.240;-1.546;2023-11-21T02:05:30;12.10;82.00
77985;DHT22;67177;47.240;-1.546;2023-11-21T02:07:55;12.10;82.10
77985;DHT22;67177;47.240;-1.546;2023-11-21T02:10:22;12.10;82.00
77985;DHT22;67177;47.240;-1.546;2023-11-21T02:12:51;12.10;82.10
77985;DHT22;67177;47.240;-1.546;2023-11-21T02:15:17;12.10;81.90
77985;DHT22;67177;47.240;-1.546;2023-11-21T02:17:47;12.10;81.90
77985;DHT22;67177;47.240;-1.546;2023-11-21T02:20:17;12.10;81.80
77985;DHT22;67177;47.240;-1.546;2023-11-21T02:22:55;12.10;81.70
77985;DHT22;67177;47.240;-1.546;2023-11-21T02:25:27;12.10;81.50
77985;DHT22;67177;47.240;-1.546;2023-11-21T02:27:53;12.10;81.50
77985;DHT22;67177;47.240;-1.546;2023-11-21T02:30:21;12.00;81.60
77985;DHT22;67177;47.240;-1.546;2023-11-21T02:32:47;12.00;81.60
77985;DHT22;67177;47.240;-1.546;2023-11-21T02:35:14;12.00;81.50
77985;DHT22;67177;47.240;-1.546;2023-11-21T02:37:41;12.10;81.60
77985;DHT22;67177;47.240;-1.546;2023-11-21T02:40:09;12.00;81.70
77985;DHT22;67177;47.240;-1.546;2023-11-21T02:42:35;12.00;81.70
77985;DHT22;67177;47.240;-1.546;2023-11-21T02:45:01;12.00;81.50
77985;DHT22;67177;47.240;-1.546;2023-11-21T02:47:26;12.00;81.60
77985;DHT22;67177;47.240;-1.546;2023-11-21T02:49:52;12.00;81.30
77985;DHT22;67177;47.240;-1.546;2023-11-21T02:52:18;12.00;81.30
77985;DHT22;67177;47.240;-1.546;2023-11-21T02:54:44;12.00;81.40
77985;DHT22;67177;47.240;-1.546;2023-11-21T02:57:10;12.00;81.30
77985;DHT22;67177;47.240;-1.546;2023-11-21T02:59:35;12.00;81.40
77985;DHT22;67177;47.240;-1.546;2023-11-21T03:02:01;12.00;81.40
77985;DHT22;67177;47.240;-1.546;2023-11-21T03:04:27;11.90;81.40
77985;DHT22;67177;47.240;-1.546;2023-11-21T03:06:52;12.00;81.30
77985;DHT22;67177;47.240;-1.546;2023-11-21T03:09:18;11.90;81.30
77985;DHT22;67177;47.240;-1.546;2023-11-21T03:11:43;11.90;81.40
77985;DHT22;67177;47.240;-1.546;2023-11-21T03:14:09;11.90;81.50
77985;DHT22;67177;47.240;-1.546;2023-11-21T03:16:36;11.90;81.40
77985;DHT22;67177;47.240;-1.546;2023-11-21T03:19:04;11.90;81.50
77985;DHT22;67177;47.240;-1.546;2023-11-21T03:21:30;11.80;81.40
77985;DHT22;67177;47.240;-1.546;2023-11-21T03:23:56;11.80;81.50
77985;DHT22;67177;47.240;-1.546;2023-11-21T03:26:21;11.80;81.50
77985;DHT22;67177;47.240;-1.546;2023-11-21T03:28:47;11.70;81.40
77985;DHT22;67177;47.240;-1.546;2023-11-21T03:31:12;11.70;81.40
77985;DHT22;67177;47.240;-1.546;2023-11-21T03:33:38;11.70;81.50
77985;DHT22;67177;47.240;-1.546;2023-11-21T03:36:04;11.70;81.40
77985;DHT22;67177;47.240;-1.546;2023-11-21T03:38:29;11.70;81.50
77985;DHT22;67177;47.240;-1.546;2023-11-21T03:40:55;11.60;81.50
77985;DHT22;67177;47.240;-1.546;2023-11-21T03:43:21;11.60;81.50
77985;DHT22;67177;47.240;-1.546;2023-11-21T03:45:46;11.50;81.60
77985;DHT22;67177;47.240;-1.546;2023-11-21T03:48:12;11.50;81.50
77985;DHT22;67177;47.240;-1.546;2023-11-21T03:50:38;11.50;81.60
77985;DHT22;67177;47.240;-1.546;2023-11-21T03:53:04;11.50;81.60
77985;DHT22;67177;47.240;-1.546;2023-11-21T03:55:30;11.40;81.70
77985;DHT22;67177;47.240;-1.546;2023-11-21T03:57:57;11.40;81.70
77985;DHT22;67177;47.240;-1.546;2023-11-21T04:00:24;11.40;81.80
77985;DHT22;67177;47.240;-1.546;2023-11-21T04:02:49;11.40;81.80
77985;DHT22;67177;47.240;-1.546;2023-11-21T04:05:17;11.30;81.90
77985;DHT22;67177;47.240;-1.546;2023-11-21T04:07:42;11.30;82.00
77985;DHT22;67177;47.240;-1.546;2023-11-21T04:10:08;11.30;82.10
77985;DHT22;67177;47.240;-1.546;2023-11-21T04:12:35;11.30;82.00
77985;DHT22;67177;47.240;-1.546;2023-11-21T04:15:01;11.30;82.00
77985;DHT22;67177;47.240;-1.546;2023-11-21T04:17:26;11.30;82.00
77985;DHT22;67177;47.240;-1.546;2023-11-21T04:19:52;11.40;82.00
77985;DHT22;67177;47.240;-1.546;2023-11-21T04:22:17;11.30;81.80
77985;DHT22;67177;47.240;-1.546;2023-11-21T04:24:43;11.30;82.00
77985;DHT22;67177;47.240;-1.546;2023-11-21T04:27:09;11.30;81.90
77985;DHT22;67177;47.240;-1.546;2023-11-21T04:29:34;11.30;81.80
77985;DHT22;67177;47.240;-1.546;2023-11-21T04:32:01;11.40;81.70
77985;DHT22;67177;47.240;-1.546;2023-11-21T04:34:28;11.40;81.60
77985;DHT22;67177;47.240;-1.546;2023-11-21T04:36:56;11.40;81.50
77985;DHT22;67177;47.240;-1.546;2023-11-21T04:39:22;11.30;81.50
77985;DHT22;67177;47.240;-1.546;2023-11-21T04:41:48;11.30;81.50
77985;DHT22;67177;47.240;-1.546;2023-11-21T04:44:13;11.30;81.40
77985;DHT22;67177;47.240;-1.546;2023-11-21T04:46:39;11.30;81.50
77985;DHT22;67177;47.240;-1.546;2023-11-21T04:49:04;11.30;81.60
77985;DHT22;67177;47.240;-1.546;2023-11-21T04:51:30;11.30;81.60
77985;DHT22;67177;47.240;-1.546;2023-11-21T04:53:57;11.30;81.60
77985;DHT22;67177;47.240;-1.546;2023-11-21T04:56:23;11.30;81.60
77985;DHT22;67177;47.240;-1.546;2023-11-21T04:58:48;11.40;81.70
77985;DHT22;67177;47.240;-1.546;2023-11-21T05:01:14;11.40;81.50
77985;DHT22;67177;47.240;-1.546;2023-11-21T05:03:40;11.40;81.20
77985;DHT22;67177;47.240;-1.546;2023-11-21T05:06:06;11.40;81.10
77985;DHT22;67177;47.240;-1.546;2023-11-21T05:08:32;11.40;81.10
77985;DHT22;67177;47.240;-1.546;2023-11-21T05:10:57;11.40;80.90
77985;DHT22;67177;47.240;-1.546;2023-11-21T05:13:23;11.30;80.80
77985;DHT22;67177;47.240;-1.546;2023-11-21T05:15:55;11.30;80.90
77985;DHT22;67177;47.240;-1.546;2023-11-21T05:18:24;11.20;80.90
77985;DHT22;67177;47.240;-1.546;2023-11-21T05:20:52;11.20;81.00
77985;DHT22;67177;47.240;-1.546;2023-11-21T05:23:19;11.20;81.10
77985;DHT22;67177;47.240;-1.546;2023-11-21T05:25:44;11.20;81.20
77985;DHT22;67177;47.240;-1.546;2023-11-21T05:28:11;11.20;81.20
77985;DHT22;67177;47.240;-1.546;2023-11-21T05:30:37;11.20;81.10
77985;DHT22;67177;47.240;-1.546;2023-11-21T05:33:04;11.10;81.20
77985;DHT22;67177;47.240;-1.546;2023-11-21T05:35:30;11.10;81.30
77985;DHT22;67177;47.240;-1.546;2023-11-21T05:37:56;11.10;81.10
77985;DHT22;67177;47.240;-1.546;2023-11-21T05:40:22;11.00;81.10
77985;DHT22;67177;47.240;-1.546;2023-11-21T05:42:48;11.00;81.20
77985;DHT22;67177;47.240;-1.546;2023-11-21T05:45:14;11.00;81.20
77985;DHT22;67177;47.240;-1.546;2023-11-21T05:47:41;10.90;81.20
77985;DHT22;67177;47.240;-1.546;2023-11-21T05:50:09;10.90;81.30
77985;DHT22;67177;47.240;-1.546;2023-11-21T05:52:41;10.90;81.30
77985;DHT22;67177;47.240;-1.546;2023-11-21T05:55:08;11.00;81.60
77985;DHT22;67177;47.240;-1.546;2023-11-21T05:57:35;11.00;81.60
77985;DHT22;67177;47.240;-1.546;2023-11-21T06:00:05;11.00;81.50
77985;DHT22;67177;47.240;-1.546;2023-11-21T06:02:41;11.00;81.50
77985;DHT22;67177;47.240;-1.546;2023-11-21T06:05:08;11.10;81.50
77985;DHT22;67177;47.240;-1.546;2023-11-21T06:07:34;11.10;81.50
77985;DHT22;67177;47.240;-1.546;2023-11-21T06:10:01;11.10;81.50
77985;DHT22;67177;47.240;-1.546;2023-11-21T06:12:28;11.20;81.50
77985;DHT22;67177;47.240;-1.546;2023-11-21T06:14:54;11.20;81.40
77985;DHT22;67177;47.240;-1.546;2023-11-21T06:17:21;11.20;81.10
77985;DHT22;67177;47.240;-1.546;2023-11-21T06:19:47;11.20;81.10
77985;DHT22;67177;47.240;-1.546;2023-11-21T06:22:12;11.20;81.20
77985;DHT22;67177;47.240;-1.546;2023-11-21T06:24:38;11.20;81.20
77985;DHT22;67177;47.240;-1.546;2023-11-21T06:27:04;11.30;81.00
77985;DHT22;67177;47.240;-1.546;2023-11-21T06:29:30;11.30;80.90
77985;DHT22;67177;47.240;-1.546;2023-11-21T06:31:57;11.30;80.90
77985;DHT22;67177;47.240;-1.546;2023-11-21T06:34:23;11.30;80.90
77985;DHT22;67177;47.240;-1.546;2023-11-21T06:36:50;11.30;80.80
77985;DHT22;67177;47.240;-1.546;2023-11-21T06:39:16;11.30;80.70
77985;DHT22;67177;47.240;-1.546;2023-11-21T06:41:43;11.30;80.60
77985;DHT22;67177;47.240;-1.546;2023-11-21T06:44:08;11.20;80.60
77985;DHT22;67177;47.240;-1.546;2023-11-21T06:46:34;11.20;80.80
77985;DHT22;67177;47.240;-1.546;2023-11-21T06:49:00;11.20;80.90
77985;DHT22;67177;47.240;-1.546;2023-11-21T06:51:25;11.20;80.80
77985;DHT22;67177;47.240;-1.546;2023-11-21T06:53:51;11.20;80.80
77985;DHT22;67177;47.240;-1.546;2023-11-21T06:56:17;11.20;80.80
77985;DHT22;67177;47.240;-1.546;2023-11-21T06:58:45;11.20;80.90
77985;DHT22;67177;47.240;-1.546;2023-11-21T07:01:11;11.20;80.80
77985;DHT22;67177;47.240;-1.546;2023-11-21T07:03:37;11.20;80.70
77985;DHT22;67177;47.240;-1.546;2023-11-21T07:06:03;11.20;80.80
77985;DHT22;67177;47.240;-1.546;2023-11-21T07:08:29;11.20;80.70
77985;DHT22;67177;47.240;-1.546;2023-11-21T07:10:55;11.20;80.70
77985;DHT22;67177;47.240;-1.546;2023-11-21T07:13:20;11.20;80.70
77985;DHT22;67177;47.240;-1.546;2023-11-21T07:15:47;11.20;80.80
77985;DHT22;67177;47.240;-1.546;2023-11-21T07:18:13;11.20;80.80
77985;DHT22;67177;47.240;-1.546;2023-11-21T07:20:39;11.20;80.80
77985;DHT22;67177;47.240;-1.546;2023-11-21T07:23:05;11.20;80.80
77985;DHT22;67177;47.240;-1.546;2023-11-21T07:25:31;11.20;80.70
77985;DHT22;67177;47.240;-1.546;2023-11-21T07:27:57;11.20;80.80
77985;DHT22;67177;47.240;-1.546;2023-11-21T07:30:23;11.20;80.70
77985;DHT22;67177;47.240;-1.546;2023-11-21T07:32:49;11.20;80.80
77985;DHT22;67177;47.240;-1.546;2023-11-21T07:35:14;11.20;80.80
77985;DHT22;67177;47.240;-1.546;2023-11-21T07:37:40;11.10;80.70
77985;DHT22;67177;47.240;-1.546;2023-11-21T07:40:06;11.20;80.80
77985;DHT22;67177;47.240;-1.546;2023-11-21T07:42:34;11.20;80.90
77985;DHT22;67177;47.240;-1.546;2023-11-21T07:45:00;11.20;80.90
77985;DHT22;67177;47.240;-1.546;2023-11-21T07:47:26;11.20;81.00
77985;DHT22;67177;47.240;-1.546;2023-11-21T07:49:53;11.30;80.90
77985;DHT22;67177;47.240;-1.546;2023-11-21T07:52:21;11.20;80.90
77985;DHT22;67177;47.240;-1.546;2023-11-21T07:54:47;11.20;80.80
77985;DHT22;67177;47.240;-1.546;2023-11-21T07:57:13;11.20;80.70
77985;DHT22;67177;47.240;-1.546;2023-11-21T07:59:39;11.30;80.80
77985;DHT22;67177;47.240;-1.546;2023-11-21T08:02:06;11.30;80.80
77985;DHT22;67177;47.240;-1.546;2023-11-21T08:04:32;11.40;81.00
77985;DHT22;67177;47.240;-1.546;2023-11-21T08:06:57;11.40;80.70
77985;DHT22;67177;47.240;-1.546;2023-11-21T08:09:23;11.40;80.70
77985;DHT22;67177;47.240;-1.546;2023-11-21T08:11:49;11.40;80.60
77985;DHT22;67177;47.240;-1.546;2023-11-21T08:14:15;11.40;80.70
77985;DHT22;67177;47.240;-1.546;2023-11-21T08:16:41;11.40;80.70
77985;DHT22;67177;47.240;-1.546;2023-11-21T08:19:06;11.50;80.60
77985;DHT22;67177;47.240;-1.546;2023-11-21T08:21:34;11.50;80.50
77985;DHT22;67177;47.240;-1.546;2023-11-21T08:23:59;11.50;80.60
77985;DHT22;67177;47.240;-1.546;2023-11-21T08:26:25;11.60;80.70
77985;DHT22;67177;47.240;-1.546;2023-11-21T08:28:51;11.60;80.60
77985;DHT22;67177;47.240;-1.546;2023-11-21T08:31:25;11.70;80.50
77985;DHT22;67177;47.240;-1.546;2023-11-21T08:33:51;11.80;80.50
77985;DHT22;67177;47.240;-1.546;2023-11-21T08:36:20;11.80;80.30
77985;DHT22;67177;47.240;-1.546;2023-11-21T08:38:46;11.80;80.20
77985;DHT22;67177;47.240;-1.546;2023-11-21T08:41:12;11.80;80.10
77985;DHT22;67177;47.240;-1.546;2023-11-21T08:43:37;11.80;80.10
77985;DHT22;67177;47.240;-1.546;2023-11-21T08:46:07;11.70;79.90
77985;DHT22;67177;47.240;-1.546;2023-11-21T08:48:35;11.70;79.80
77985;DHT22;67177;47.240;-1.546;2023-11-21T08:51:01;11.60;79.80
77985;DHT22;67177;47.240;-1.546;2023-11-21T08:53:27;11.60;79.70
77985;DHT22;67177;47.240;-1.546;2023-11-21T08:55:52;11.60;80.00
77985;DHT22;67177;47.240;-1.546;2023-11-21T08:58:19;11.60;80.10
77985;DHT22;67177;47.240;-1.546;2023-11-21T09:00:45;11.60;80.20
77985;DHT22;67177;47.240;-1.546;2023-11-21T09:03:12;11.50;80.10
77985;DHT22;67177;47.240;-1.546;2023-11-21T09:05:39;11.60;80.10
77985;DHT22;67177;47.240;-1.546;2023-11-21T09:08:05;11.70;80.30
77985;DHT22;67177;47.240;-1.546;2023-11-21T09:10:31;11.70;80.30
77985;DHT22;67177;47.240;-1.546;2023-11-21T09:12:57;11.70;80.30
77985;DHT22;67177;47.240;-1.546;2023-11-21T09:15:24;11.80;80.00
77985;DHT22;67177;47.240;-1.546;2023-11-21T09:17:50;11.90;79.70
77985;DHT22;67177;47.240;-1.546;2023-11-21T09:20:16;12.10;79.50
77985;DHT22;67177;47.240;-1.546;2023-11-21T09:22:42;12.20;79.30
77985;DHT22;67177;47.240;-1.546;2023-11-21T09:25:10;12.30;79.40
77985;DHT22;67177;47.240;-1.546;2023-11-21T09:27:36;12.30;79.40
77985;DHT22;67177;47.240;-1.546;2023-11-21T09:30:02;12.40;79.20
77985;DHT22;67177;47.240;-1.546;2023-11-21T09:32:30;12.50;78.90
77985;DHT22;67177;47.240;-1.546;2023-11-21T09:34:56;12.60;78.50
77985;DHT22;67177;47.240;-1.546;2023-11-21T09:37:23;12.60;78.20
77985;DHT22;67177;47.240;-1.546;2023-11-21T09:39:50;12.70;78.40
77985;DHT22;67177;47.240;-1.546;2023-11-21T09:42:39;12.70;78.30
77985;DHT22;67177;47.240;-1.546;2023-11-21T09:45:28;12.70;78.60
77985;DHT22;67177;47.240;-1.546;2023-11-21T09:47:56;12.70;78.30
77985;DHT22;67177;47.240;-1.546;2023-11-21T09:50:22;12.70;77.70
77985;DHT22;67177;47.240;-1.546;2023-11-21T09:53:16;12.70;78.00
77985;DHT22;67177;47.240;-1.546;2023-11-21T09:55:44;12.80;78.00
77985;DHT22;67177;47.240;-1.546;2023-11-21T09:58:10;12.90;77.90
77985;DHT22;67177;47.240;-1.546;2023-11-21T10:00:46;12.90;77.60
77985;DHT22;67177;47.240;-1.546;2023-11-21T10:03:12;12.90;77.60
77985;DHT22;67177;47.240;-1.546;2023-11-21T10:05:39;13.00;77.40
77985;DHT22;67177;47.240;-1.546;2023-11-21T10:08:10;13.00;77.40
77985;DHT22;67177;47.240;-1.546;2023-11-21T10:10:37;13.00;77.20
77985;DHT22;67177;47.240;-1.546;2023-11-21T10:13:05;13.10;76.70
77985;DHT22;67177;47.240;-1.546;2023-11-21T10:15:34;13.00;76.60
77985;DHT22;67177;47.240;-1.546;2023-11-21T10:18:03;12.90;76.60
77985;DHT22;67177;47.240;-1.546;2023-11-21T10:20:30;12.90;76.70
77985;DHT22;67177;47.240;-1.546;2023-11-21T10:22:56;12.80;76.80
77985;DHT22;67177;47.240;-1.546;2023-11-21T10:25:22;12.80;76.90
77985;DHT22;67177;47.240;-1.546;2023-11-21T10:27:49;12.80;77.10
77985;DHT22;67177;47.240;-1.546;2023-11-21T10:30:17;12.80;77.00
77985;DHT22;67177;47.240;-1.546;2023-11-21T10:32:44;12.80;76.90
77985;DHT22;67177;47.240;-1.546;2023-11-21T10:35:10;12.80;77.00
77985;DHT22;67177;47.240;-1.546;2023-11-21T10:37:40;12.90;76.80
77985;DHT22;67177;47.240;-1.546;2023-11-21T10:40:11;13.00;76.70
77985;DHT22;67177;47.240;-1.546;2023-11-21T10:42:40;13.10;76.40
77985;DHT22;67177;47.240;-1.546;2023-11-21T10:45:06;13.10;75.40
77985;DHT22;67177;47.240;-1.546;2023-11-21T10:47:41;13.20;75.40
77985;DHT22;67177;47.240;-1.546;2023-11-21T10:50:07;13.30;75.60
77985;DHT22;67177;47.240;-1.546;2023-11-21T10:52:37;13.40;75.50
77985;DHT22;67177;47.240;-1.546;2023-11-21T10:55:16;13.40;75.50
77985;DHT22;67177;47.240;-1.546;2023-11-21T10:57:44;13.40;74.90
77985;DHT22;67177;47.240;-1.546;2023-11-21T11:00:11;13.40;74.80
77985;DHT22;67177;47.240;-1.546;2023-11-21T11:02:38;13.40;74.20
77985;DHT22;67177;47.240;-1.546;2023-11-21T11:05:06;13.40;73.80
77985;DHT22;67177;47.240;-1.546;2023-11-21T11:07:32;13.30;73.90
77985;DHT22;67177;47.240;-1.546;2023-11-21T11:09:59;13.30;73.80
77985;DHT22;67177;47.240;-1.546;2023-11-21T11:12:25;13.50;73.20
77985;DHT22;67177;47.240;-1.546;2023-11-21T11:14:51;13.70;73.00
77985;DHT22;67177;47.240;-1.546;2023-11-21T11:17:19;13.70;73.30
77985;DHT22;67177;47.240;-1.546;2023-11-21T11:19:48;13.80;73.20
77985;DHT22;67177;47.240;-1.546;2023-11-21T11:25:18;13.80;73.10
77985;DHT22;67177;47.240;-1.546;2023-11-21T11:38:45;14.10;71.60
77985;DHT22;67177;47.240;-1.546;2023-11-21T11:41:11;14.20;71.60
77985;DHT22;67177;47.240;-1.546;2023-11-21T11:43:37;14.20;71.60
77985;DHT22;67177;47.240;-1.546;2023-11-21T11:46:12;14.20;71.80
77985;DHT22;67177;47.240;-1.546;2023-11-21T11:48:41;14.20;71.90
77985;DHT22;67177;47.240;-1.546;2023-11-21T11:51:14;14.20;72.10
77985;DHT22;67177;47.240;-1.546;2023-11-21T11:53:43;14.20;71.80
77985;DHT22;67177;47.240;-1.546;2023-11-21T11:56:30;14.20;71.50
77985;DHT22;67177;47.240;-1.546;2023-11-21T11:58:58;14.20;71.60
77985;DHT22;67177;47.240;-1.546;2023-11-21T12:01:26;14.30;71.70
77985;DHT22;67177;47.240;-1.546;2023-11-21T12:07:02;14.30;71.50
77985;DHT22;67177;47.240;-1.546;2023-11-21T12:09:29;14.40;70.70
77985;DHT22;67177;47.240;-1.546;2023-11-21T12:11:55;14.30;70.90
77985;DHT22;67177;47.240;-1.546;2023-11-21T12:14:24;14.40;71.30
77985;DHT22;67177;47.240;-1.546;2023-11-21T12:16:49;14.50;70.90
77985;DHT22;67177;47.240;-1.546;2023-11-21T12:19:17;14.50;70.70
77985;DHT22;67177;47.240;-1.546;2023-11-21T12:21:43;14.50;70.50
77985;DHT22;67177;47.240;-1.546;2023-11-21T12:24:09;14.60;70.70
77985;DHT22;67177;47.240;-1.546;2023-11-21T12:26:35;14.60;70.80
77985;DHT22;67177;47.240;-1.546;2023-11-21T12:29:04;14.50;70.10
77985;DHT22;67177;47.240;-1.546;2023-11-21T12:31:31;14.60;70.30
77985;DHT22;67177;47.240;-1.546;2023-11-21T12:33:57;14.60;70.50
77985;DHT22;67177;47.240;-1.546;2023-11-21T12:36:23;14.50;70.50
77985;DHT22;67177;47.240;-1.546;2023-11-21T12:38:49;14.60;70.40
77985;DHT22;67177;47.240;-1.546;2023-11-21T12:41:16;14.60;70.40
77985;DHT22;67177;47.240;-1.546;2023-11-21T12:43:42;14.50;70.30
77985;DHT22;67177;47.240;-1.546;2023-11-21T12:46:10;14.50;70.40
77985;DHT22;67177;47.240;-1.546;2023-11-21T12:48:39;14.50;70.50
77985;DHT22;67177;47.240;-1.546;2023-11-21T12:51:10;14.50;70.30
77985;DHT22;67177;47.240;-1.546;2023-11-21T12:53:38;14.50;70.20
77985;DHT22;67177;47.240;-1.546;2023-11-21T12:56:13;14.60;70.20
77985;DHT22;67177;47.240;-1.546;2023-11-21T12:58:39;14.60;70.30
77985;DHT22;67177;47.240;-1.546;2023-11-21T13:01:08;14.60;70.00
77985;DHT22;67177;47.240;-1.546;2023-11-21T13:03:45;14.50;70.10
77985;DHT22;67177;47.240;-1.546;2023-11-21T13:06:16;14.50;70.10
77985;DHT22;67177;47.240;-1.546;2023-11-21T13:08:44;14.50;69.90
77985;DHT22;67177;47.240;-1.546;2023-11-21T13:11:11;14.50;70.00
77985;DHT22;67177;47.240;-1.546;2023-11-21T13:13:36;14.50;70.40
77985;DHT22;67177;47.240;-1.546;2023-11-21T13:16:06;14.50;70.40
77985;DHT22;67177;47.240;-1.546;2023-11-21T13:18:34;14.60;70.10
77985;DHT22;67177;47.240;-1.546;2023-11-21T13:21:02;14.60;70.20
77985;DHT22;67177;47.240;-1.546;2023-11-21T13:23:34;14.60;70.40
77985;DHT22;67177;47.240;-1.546;2023-11-21T13:26:01;14.60;69.80
77985;DHT22;67177;47.240;-1.546;2023-11-21T13:28:29;14.60;69.80
77985;DHT22;67177;47.240;-1.546;2023-11-21T13:30:58;14.60;70.00
77985;DHT22;67177;47.240;-1.546;2023-11-21T13:33:28;14.50;70.10
77985;DHT22;67177;47.240;-1.546;2023-11-21T13:35:54;14.40;70.00
77985;DHT22;67177;47.240;-1.546;2023-11-21T13:38:21;14.40;70.20
77985;DHT22;67177;47.240;-1.546;2023-11-21T13:40:50;14.30;70.20
77985;DHT22;67177;47.240;-1.546;2023-11-21T13:43:20;14.30;70.40
77985;DHT22;67177;47.240;-1.546;2023-11-21T13:45:47;14.30;70.60
77985;DHT22;67177;47.240;-1.546;2023-11-21T13:48:15;14.30;70.50
77985;DHT22;67177;47.240;-1.546;2023-11-21T13:50:45;14.20;70.60
77985;DHT22;67177;47.240;-1.546;2023-11-21T13:53:29;14.20;70.60
77985;DHT22;67177;47.240;-1.546;2023-11-21T13:55:55;14.20;70.90
77985;DHT22;67177;47.240;-1.546;2023-11-21T13:58:26;14.20;70.90
77985;DHT22;67177;47.240;-1.546;2023-11-21T14:01:07;14.20;71.00
77985;DHT22;67177;47.240;-1.546;2023-11-21T14:03:42;14.20;71.10
77985;DHT22;67177;47.240;-1.546;2023-11-21T14:06:17;14.10;71.20
77985;DHT22;67177;47.240;-1.546;2023-11-21T14:08:50;14.10;71.20
77985;DHT22;67177;47.240;-1.546;2023-11-21T14:11:15;14.10;71.30
77985;DHT22;67177;47.240;-1.546;2023-11-21T14:13:44;14.10;71.40
77985;DHT22;67177;47.240;-1.546;2023-11-21T14:16:14;14.10;71.40
77985;DHT22;67177;47.240;-1.546;2023-11-21T14:18:42;14.10;71.20
77985;DHT22;67177;47.240;-1.546;2023-11-21T14:21:18;14.10;71.20
77985;DHT22;67177;47.240;-1.546;2023-11-21T14:23:44;14.00;71.00
77985;DHT22;67177;47.240;-1.546;2023-11-21T14:26:11;14.00;71.00
77985;DHT22;67177;47.240;-1.546;2023-11-21T14:28:41;14.00;70.80
77985;DHT22;67177;47.240;-1.546;2023-11-21T14:31:07;14.00;70.70
77985;DHT22;67177;47.240;-1.546;2023-11-21T14:33:38;13.90;70.90
77985;DHT22;67177;47.240;-1.546;2023-11-21T14:36:04;14.00;70.90
77985;DHT22;67177;47.240;-1.546;2023-11-21T14:38:30;13.90;71.00
77985;DHT22;67177;47.240;-1.546;2023-11-21T14:40:55;14.00;71.00
77985;DHT22;67177;47.240;-1.546;2023-11-21T14:43:22;13.90;71.10
77985;DHT22;67177;47.240;-1.546;2023-11-21T14:45:49;13.90;71.30
77985;DHT22;67177;47.240;-1.546;2023-11-21T14:48:16;14.00;71.50
77985;DHT22;67177;47.240;-1.546;2023-11-21T14:50:51;13.90;71.60
77985;DHT22;67177;47.240;-1.546;2023-11-21T14:53:18;14.00;71.60
77985;DHT22;67177;47.240;-1.546;2023-11-21T14:56:04;13.90;71.60
77985;DHT22;67177;47.240;-1.546;2023-11-21T14:58:29;13.90;71.50
77985;DHT22;67177;47.240;-1.546;2023-11-21T15:00:56;13.90;71.60
77985;DHT22;67177;47.240;-1.546;2023-11-21T15:03:26;13.90;71.80
77985;DHT22;67177;47.240;-1.546;2023-11-21T15:05:58;13.80;71.90
77985;DHT22;67177;47.240;-1.546;2023-11-21T15:08:25;13.80;71.90
77985;DHT22;67177;47.240;-1.546;2023-11-21T15:10:57;13.80;72.10
77985;DHT22;67177;47.240;-1.546;2023-11-21T15:13:24;13.80;72.20
77985;DHT22;67177;47.240;-1.546;2023-11-21T15:15:52;13.80;72.40
77985;DHT22;67177;47.240;-1.546;2023-11-21T15:18:20;13.70;72.50
77985;DHT22;67177;47.240;-1.546;2023-11-21T15:20:46;13.70;72.60
77985;DHT22;67177;47.240;-1.546;2023-11-21T15:23:12;13.70;72.70
77985;DHT22;67177;47.240;-1.546;2023-11-21T15:25:43;13.70;72.80
77985;DHT22;67177;47.240;-1.546;2023-11-21T15:28:08;13.60;72.80
77985;DHT22;67177;47.240;-1.546;2023-11-21T15:30:34;13.60;72.00
77985;DHT22;67177;47.240;-1.546;2023-11-21T15:33:00;13.60;71.80